Time;durP1;ratioP1;P1;durP2;ratioP2;P2;SDS_P1;SDS_P2;PMS_P1;PMS_P2;Temp;Humidity;BMP_temperature;BMP_pressure;BME280_temperature;BME280_humidity;BME280_pressure;Samples;Min_cycle;Max_cycle;Signal;HPM_P1;HPM_P2
2023/05/05 00:01:10;;;;;;;5.85;4.60;;;12.90;98.00;;;;;;5029359;28;20094;-81
2023/05/05 00:03:36;;;;;;;8.93;4.57;;;12.90;98.10;;;;;;5029560;28;20044;-81
2023/05/05 00:06:03;;;;;;;5.38;4.80;;;12.80;98.20;;;;;;5054063;28;20076;-82
2023/05/05 00:08:28;;;;;;;8.13;5.13;;;12.80;98.60;;;;;;5026980;28;20048;-83
2023/05/05 00:10:57;;;;;;;6.65;4.95;;;12.90;98.80;;;;;;5047368;28;20041;-82
2023/05/05 00:13:25;;;;;;;9.60;5.13;;;12.80;98.90;;;;;;5028950;28;20128;-82
2023/05/05 00:15:52;;;;;;;7.80;4.90;;;12.80;99.10;;;;;;5027997;28;20171;-82
2023/05/05 00:18:19;;;;;;;6.40;5.03;;;12.70;99.30;;;;;;5044449;28;20041;-81
2023/05/05 00:20:46;;;;;;;7.60;5.28;;;12.70;99.50;;;;;;5047530;28;20060;-82
2023/05/05 00:23:12;;;;;;;7.47;5.15;;;13.20;99.70;;;;;;5042054;28;20049;-81
2023/05/05 00:25:37;;;;;;;8.55;5.43;;;12.70;99.90;;;;;;5046194;28;20060;-81
2023/05/05 00:28:03;;;;;;;7.25;5.30;;;12.60;99.90;;;;;;5046615;28;20041;-81
2023/05/05 00:30:29;;;;;;;7.15;5.15;;;12.60;99.90;;;;;;5046204;28;20041;-81
2023/05/05 00:32:55;;;;;;;7.85;5.28;;;12.60;99.90;;;;;;5046674;28;20037;-81
2023/05/05 00:35:21;;;;;;;7.40;5.28;;;12.60;99.90;;;;;;5037698;28;20780;-81
2023/05/05 00:37:46;;;;;;;6.95;5.18;;;12.60;99.90;;;;;;5041162;28;20052;-81
2023/05/05 00:40:12;;;;;;;8.52;5.53;;;12.60;99.90;;;;;;5013218;28;20499;-81
2023/05/05 00:42:43;;;;;;;6.88;5.32;;;12.70;99.90;;;;;;5046122;28;20450;-82
2023/05/05 00:45:10;;;;;;;12.80;4.55;;;12.70;99.90;;;;;;5030060;28;20187;-82
2023/05/05 00:47:37;;;;;;;7.13;5.32;;;12.70;99.90;;;;;;5046817;28;20052;-82
2023/05/05 00:50:09;;;;;;;6.60;5.25;;;12.70;99.90;;;;;;5047339;28;20452;-83
2023/05/05 00:52:36;;;;;;;11.05;6.13;;;12.70;99.90;;;;;;5009008;28;20061;-81
2023/05/05 00:55:03;;;;;;;7.93;5.85;;;13.10;99.90;;;;;;5043672;28;20045;-82
2023/05/05 00:57:29;;;;;;;8.63;5.50;;;12.60;99.90;;;;;;5011897;28;20137;-81
2023/05/05 00:59:55;;;;;;;9.18;5.20;;;12.70;99.90;;;;;;5026253;28;20045;-81
2023/05/05 01:02:21;;;;;;;8.00;5.88;;;12.50;99.90;;;;;;5049950;28;20045;-82
2023/05/05 01:04:47;;;;;;;7.93;5.28;;;12.50;99.90;;;;;;5051007;28;20052;-82
2023/05/05 01:07:44;;;;;;;8.93;5.35;;;12.50;99.90;;;;;;5031416;28;20056;-81
2023/05/05 01:10:39;;;;;;;8.05;5.30;;;12.40;99.90;;;;;;5044091;28;20050;-81
2023/05/05 01:13:11;;;;;;;9.07;5.72;;;12.40;99.90;;;;;;5025377;28;20515;-81
2023/05/05 01:15:42;;;;;;;9.03;5.47;;;12.40;99.90;;;;;;5050765;28;20044;-85
2023/05/05 01:18:35;;;;;;;8.00;6.10;;;12.50;99.90;;;;;;5050494;28;20056;-80
2023/05/05 01:21:17;;;;;;;6.93;5.28;;;12.70;99.90;;;;;;5034629;28;20063;-81
2023/05/05 01:24:04;;;;;;;7.20;5.63;;;12.40;99.90;;;;;;5047732;28;20052;-81
2023/05/05 01:26:35;;;;;;;6.28;5.20;;;12.90;99.90;;;;;;5045854;28;20135;-81
2023/05/05 01:29:21;;;;;;;10.63;5.50;;;12.40;99.90;;;;;;5048912;28;20045;-81
2023/05/05 01:31:58;;;;;;;9.18;5.30;;;12.40;99.90;;;;;;5031018;28;20487;-82
2023/05/05 01:34:35;;;;;;;8.98;5.50;;;12.30;99.90;;;;;;5048372;28;20262;-81
2023/05/05 01:37:13;;;;;;;8.02;5.55;;;12.30;99.90;;;;;;5048613;28;20044;-81
2023/05/05 01:39:41;;;;;;;6.43;5.72;;;12.30;99.90;;;;;;5026552;28;20211;-82
2023/05/05 01:42:12;;;;;;;6.65;5.40;;;12.30;99.90;;;;;;5031821;28;20503;-81
2023/05/05 01:44:42;;;;;;;7.20;5.68;;;12.30;99.90;;;;;;5030883;28;20056;-81
2023/05/05 01:47:13;;;;;;;8.82;5.50;;;12.30;99.90;;;;;;5016433;28;20045;-81
2023/05/05 01:49:41;;;;;;;9.27;5.88;;;12.30;99.90;;;;;;5015138;28;20052;-81
2023/05/05 01:52:09;;;;;;;9.02;5.63;;;12.30;99.90;;;;;;5047118;28;20049;-81
2023/05/05 01:54:35;;;;;;;6.07;5.28;;;12.30;99.90;;;;;;5031254;28;20360;-82
2023/05/05 01:57:03;;;;;;;8.70;5.13;;;12.30;99.90;;;;;;5049455;28;20076;-81
2023/05/05 01:59:31;;;;;;;7.00;5.40;;;12.30;99.90;;;;;;5048131;28;20756;-81
2023/05/05 02:01:58;;;;;;;9.63;5.18;;;12.30;99.90;;;;;;5030419;28;20040;-81
2023/05/05 02:04:26;;;;;;;9.70;5.55;;;12.30;99.90;;;;;;5030742;28;20072;-81
2023/05/05 02:06:54;;;;;;;7.95;5.45;;;12.30;99.90;;;;;;5045696;28;20560;-81
2023/05/05 02:09:20;;;;;;;6.88;5.32;;;12.20;99.90;;;;;;5043289;28;20068;-80
2023/05/05 02:11:46;;;;;;;7.32;5.28;;;12.20;99.90;;;;;;5049827;28;20041;-80
2023/05/05 02:14:12;;;;;;;9.88;5.40;;;12.20;99.90;;;;;;5050005;28;20044;-81
2023/05/05 02:16:40;;;;;;;9.13;6.15;;;12.20;99.90;;;;;;5030607;28;20164;-81
2023/05/05 02:19:06;;;;;;;8.07;6.28;;;12.20;99.90;;;;;;5031611;28;20100;-81
2023/05/05 02:21:32;;;;;;;6.47;5.15;;;12.20;99.90;;;;;;5048664;28;20037;-82
2023/05/05 02:23:59;;;;;;;8.60;5.22;;;12.20;99.90;;;;;;5049467;28;20037;-81
2023/05/05 02:26:25;;;;;;;5.93;4.95;;;12.20;99.90;;;;;;5032283;28;20435;-80
2023/05/05 02:29:06;;;;;;;6.57;5.22;;;12.20;99.90;;;;;;5048762;28;20052;-81
2023/05/05 02:31:37;;;;;;;6.70;5.25;;;12.20;99.90;;;;;;5033257;28;20507;-81
2023/05/05 02:34:06;;;;;;;7.97;5.22;;;12.10;99.90;;;;;;5036260;28;20123;-81
2023/05/05 02:36:35;;;;;;;8.02;5.28;;;12.10;99.90;;;;;;5031045;28;20033;-81
2023/05/05 02:39:06;;;;;;;9.00;5.82;;;12.10;99.90;;;;;;5047267;28;20048;-81
2023/05/05 02:41:34;;;;;;;7.35;5.05;;;12.00;99.90;;;;;;5012630;28;20053;-82
2023/05/05 02:44:03;;;;;;;8.40;5.43;;;12.00;99.90;;;;;;5048270;28;20926;-82
2023/05/05 02:46:30;;;;;;;6.78;5.70;;;12.00;99.90;;;;;;5048261;28;20136;-82
2023/05/05 02:48:55;;;;;;;7.07;5.18;;;12.00;99.90;;;;;;5047170;28;20072;-82
2023/05/05 02:51:21;;;;;;;8.73;6.00;;;12.00;99.90;;;;;;5030465;28;20084;-82
2023/05/05 02:53:47;;;;;;;6.15;5.25;;;12.00;99.90;;;;;;5029109;28;20057;-81
2023/05/05 02:56:24;;;;;;;8.68;6.13;;;11.90;99.90;;;;;;5029783;28;20136;-82
2023/05/05 02:59:03;;;;;;;6.80;5.72;;;11.90;99.90;;;;;;5030857;28;20240;-82
2023/05/05 03:01:45;;;;;;;7.68;5.82;;;11.90;99.90;;;;;;5047426;28;20138;-81
2023/05/05 03:04:26;;;;;;;7.03;5.50;;;12.00;99.90;;;;;;5028792;28;20495;-82
2023/05/05 03:06:56;;;;;;;7.25;5.75;;;11.90;99.90;;;;;;5046998;28;20052;-82
2023/05/05 03:09:28;;;;;;;6.55;5.28;;;11.80;99.90;;;;;;5030203;28;20144;-82
2023/05/05 03:12:07;;;;;;;8.43;5.60;;;11.80;99.90;;;;;;5029563;28;20049;-81
2023/05/05 03:14:40;;;;;;;8.13;5.35;;;11.70;99.90;;;;;;5008685;28;20041;-82
2023/05/05 03:17:08;;;;;;;9.60;5.82;;;11.70;99.90;;;;;;5046657;28;20056;-81
2023/05/05 03:19:37;;;;;;;6.80;5.63;;;11.70;99.90;;;;;;5029467;28;20040;-82
2023/05/05 03:22:04;;;;;;;6.57;5.68;;;11.60;99.90;;;;;;5046959;28;20084;-81
2023/05/05 03:24:29;;;;;;;7.30;5.75;;;11.60;99.90;;;;;;5048238;28;20053;-81
2023/05/05 03:26:56;;;;;;;6.78;5.68;;;11.60;99.90;;;;;;5046847;28;20714;-81
2023/05/05 03:29:22;;;;;;;10.80;6.72;;;11.50;99.90;;;;;;5047094;28;20131;-81
2023/05/05 03:31:48;;;;;;;6.30;5.57;;;11.50;99.90;;;;;;5030231;28;20037;-81
2023/05/05 03:34:13;;;;;;;8.23;5.45;;;11.50;99.90;;;;;;5028733;28;20067;-81
2023/05/05 03:36:39;;;;;;;7.70;5.13;;;11.50;99.90;;;;;;5046180;28;20049;-80
2023/05/05 03:39:05;;;;;;;8.70;5.80;;;11.50;99.90;;;;;;5029628;28;20701;-82
2023/05/05 03:41:30;;;;;;;7.32;5.70;;;11.50;99.90;;;;;;5029455;28;20227;-82
2023/05/05 03:43:56;;;;;;;7.00;5.68;;;11.50;99.90;;;;;;5029366;28;20037;-82
2023/05/05 03:46:22;;;;;;;9.05;5.60;;;11.50;99.90;;;;;;5047200;28;20045;-82
2023/05/05 03:48:47;;;;;;;8.88;5.85;;;11.60;99.90;;;;;;5034186;28;20232;-82
2023/05/05 03:51:13;;;;;;;11.27;6.50;;;11.60;99.90;;;;;;5028268;28;20053;-80
2023/05/05 03:53:39;;;;;;;9.32;6.10;;;11.60;99.90;;;;;;5009959;28;20544;-81
2023/05/05 03:56:05;;;;;;;9.23;6.20;;;11.60;99.90;;;;;;5023811;28;20456;-81
2023/05/05 03:58:30;;;;;;;8.52;6.47;;;11.50;99.90;;;;;;5028962;28;20048;-81
2023/05/05 04:00:56;;;;;;;8.63;7.05;;;11.50;99.90;;;;;;5045398;28;20046;-81
2023/05/05 04:03:22;;;;;;;8.43;6.70;;;11.50;99.90;;;;;;5008859;28;20053;-81
2023/05/05 04:05:48;;;;;;;8.02;6.75;;;11.50;99.90;;;;;;5005799;28;20479;-81
2023/05/05 04:08:13;;;;;;;9.10;6.03;;;11.50;99.90;;;;;;5046592;28;20767;-80
2023/05/05 04:10:39;;;;;;;7.78;6.57;;;11.40;99.90;;;;;;5046588;28;20403;-81
2023/05/05 04:13:04;;;;;;;8.32;6.82;;;11.40;99.90;;;;;;5045372;28;20076;-81
2023/05/05 04:15:31;;;;;;;9.18;7.10;;;11.50;99.90;;;;;;5028032;28;20053;-81
2023/05/05 04:17:56;;;;;;;10.15;6.72;;;11.40;99.90;;;;;;5046578;28;20045;-81
2023/05/05 04:20:22;;;;;;;8.55;7.05;;;11.50;99.90;;;;;;5057286;28;20048;-81
2023/05/05 04:22:47;;;;;;;9.88;7.30;;;11.50;99.90;;;;;;5043333;28;20072;-81
2023/05/05 04:25:13;;;;;;;7.75;5.95;;;11.50;99.90;;;;;;5030082;28;20051;-81
2023/05/05 04:27:39;;;;;;;8.60;6.50;;;11.50;99.90;;;;;;5047180;28;20136;-81
2023/05/05 04:30:05;;;;;;;9.07;7.15;;;11.50;99.90;;;;;;5021603;28;20162;-81
2023/05/05 04:32:31;;;;;;;7.95;6.70;;;11.40;99.90;;;;;;5046285;28;20190;-81
2023/05/05 04:34:56;;;;;;;10.90;6.82;;;11.40;99.90;;;;;;5017497;28;20200;-81
2023/05/05 04:37:22;;;;;;;9.32;6.25;;;11.40;99.90;;;;;;5043858;28;20048;-82
2023/05/05 04:39:47;;;;;;;9.00;6.65;;;11.40;99.90;;;;;;5035722;28;20124;-81
2023/05/05 04:42:13;;;;;;;10.25;6.28;;;11.40;99.90;;;;;;5072025;28;20048;-81
2023/05/05 04:44:39;;;;;;;9.65;7.13;;;11.40;99.90;;;;;;5056793;28;20048;-81
2023/05/05 04:47:04;;;;;;;8.88;6.80;;;11.40;99.90;;;;;;5016910;28;20240;-81
2023/05/05 04:49:30;;;;;;;7.10;5.80;;;11.40;99.90;;;;;;5013481;28;20051;-81
2023/05/05 04:51:56;;;;;;;7.78;6.00;;;11.40;99.90;;;;;;5044325;28;20041;-81
2023/05/05 04:54:22;;;;;;;8.10;5.70;;;11.40;99.90;;;;;;5033259;28;20480;-82
2023/05/05 04:56:47;;;;;;;9.70;6.13;;;11.40;99.90;;;;;;5032781;28;20107;-82
2023/05/05 04:59:14;;;;;;;9.50;6.85;;;11.40;99.90;;;;;;5021396;28;20124;-82
2023/05/05 05:01:40;;;;;;;8.13;6.25;;;11.40;99.90;;;;;;5030851;28;20494;-82
2023/05/05 05:04:07;;;;;;;10.07;6.45;;;11.40;99.90;;;;;;5049762;28;20443;-82
2023/05/05 05:06:32;;;;;;;7.40;6.43;;;11.50;99.90;;;;;;5050859;28;20037;-82
2023/05/05 05:08:58;;;;;;;9.55;6.53;;;11.50;99.90;;;;;;5048986;28;20068;-82
2023/05/05 05:11:24;;;;;;;8.38;6.63;;;11.50;99.90;;;;;;5031809;28;20048;-82
2023/05/05 05:13:49;;;;;;;10.70;6.82;;;11.50;99.90;;;;;;5049468;28;20435;-81
2023/05/05 05:16:15;;;;;;;11.30;7.22;;;11.50;99.90;;;;;;5032421;28;20041;-82
2023/05/05 05:18:41;;;;;;;7.00;6.30;;;12.00;99.90;;;;;;5047659;28;20495;-80
2023/05/05 05:21:07;;;;;;;9.20;6.95;;;11.40;99.90;;;;;;5049935;28;20095;-80
2023/05/05 05:23:33;;;;;;;10.75;6.80;;;11.40;99.90;;;;;;5048902;28;20056;-82
2023/05/05 05:25:58;;;;;;;8.80;7.00;;;11.40;99.90;;;;;;5030552;28;20045;-80
2023/05/05 05:28:24;;;;;;;7.28;6.57;;;11.40;99.90;;;;;;5030751;28;20136;-82
2023/05/05 05:30:51;;;;;;;7.45;6.63;;;11.40;99.90;;;;;;5031527;28;20049;-82
2023/05/05 05:33:17;;;;;;;9.20;6.80;;;11.50;99.90;;;;;;5032445;28;20131;-82
2023/05/05 05:35:43;;;;;;;9.40;6.90;;;11.50;99.90;;;;;;5030729;28;20056;-81
2023/05/05 05:38:16;;;;;;;9.15;6.72;;;11.60;99.90;;;;;;5031841;28;20104;-82
2023/05/05 05:40:42;;;;;;;9.60;6.97;;;11.60;99.90;;;;;;5046187;28;20144;-82
2023/05/05 05:43:13;;;;;;;10.18;6.93;;;11.70;99.90;;;;;;5046837;28;20088;-81
2023/05/05 05:45:39;;;;;;;11.13;6.82;;;11.70;99.90;;;;;;5028836;28;20496;-82
2023/05/05 05:48:04;;;;;;;8.70;7.80;;;11.80;99.90;;;;;;5031519;28;20293;-82
2023/05/05 05:50:30;;;;;;;7.75;6.90;;;11.90;99.90;;;;;;5048518;28;20044;-82
2023/05/05 05:52:55;;;;;;;10.15;7.53;;;12.10;99.90;;;;;;5030795;28;20057;-81
2023/05/05 05:55:21;;;;;;;8.23;6.80;;;12.50;99.90;;;;;;5031754;28;20087;-82
2023/05/05 05:57:47;;;;;;;11.45;7.20;;;12.60;99.90;;;;;;5015340;28;20048;-83
2023/05/05 06:00:14;;;;;;;10.82;7.57;;;12.80;99.90;;;;;;5042488;28;20037;-83
2023/05/05 06:02:43;;;;;;;8.20;6.75;;;12.90;99.90;;;;;;5012758;28;20053;-82
2023/05/05 06:05:09;;;;;;;11.93;7.40;;;13.30;99.90;;;;;;5030111;28;20124;-82
2023/05/05 06:07:35;;;;;;;9.32;6.90;;;13.40;99.90;;;;;;5036485;28;20053;-82
2023/05/05 06:10:00;;;;;;;9.40;7.18;;;13.50;99.90;;;;;;5031919;28;20514;-83
2023/05/05 06:12:26;;;;;;;10.32;7.75;;;13.20;99.90;;;;;;5030515;28;20036;-82
2023/05/05 06:14:52;;;;;;;7.70;6.90;;;13.10;99.90;;;;;;5031849;28;20424;-81
2023/05/05 06:17:20;;;;;;;10.00;7.45;;;13.00;99.90;;;;;;5030739;28;20045;-81
2023/05/05 06:19:46;;;;;;;10.43;7.35;;;12.90;99.90;;;;;;5049395;28;20049;-82
2023/05/05 06:22:11;;;;;;;11.65;7.63;;;13.10;99.90;;;;;;5048293;28;20057;-81
2023/05/05 06:24:37;;;;;;;10.32;7.28;;;13.10;99.90;;;;;;5029806;28;20053;-80
2023/05/05 06:27:02;;;;;;;8.68;7.35;;;13.30;99.90;;;;;;5048844;28;20072;-81
2023/05/05 06:29:28;;;;;;;9.80;7.75;;;13.30;99.90;;;;;;5030489;28;20049;-82
2023/05/05 06:31:54;;;;;;;9.73;8.23;;;13.30;99.90;;;;;;5028786;28;20468;-81
2023/05/05 06:34:20;;;;;;;9.65;7.68;;;13.30;99.90;;;;;;5029668;28;20168;-80
2023/05/05 06:36:45;;;;;;;10.43;7.43;;;13.30;99.90;;;;;;5042632;28;20128;-81
2023/05/05 06:39:11;;;;;;;10.30;8.10;;;13.30;99.90;;;;;;5010236;28;20046;-82
2023/05/05 06:41:36;;;;;;;9.65;7.32;;;13.40;99.90;;;;;;4997121;28;20091;-82
2023/05/05 06:44:05;;;;;;;9.73;7.57;;;13.40;99.90;;;;;;5047908;28;20482;-82
2023/05/05 06:46:34;;;;;;;12.27;8.40;;;13.40;99.90;;;;;;5031227;28;20237;-82
2023/05/05 06:49:02;;;;;;;9.75;7.75;;;13.50;99.90;;;;;;5030632;28;20535;-84
2023/05/05 06:51:28;;;;;;;9.32;7.85;;;13.60;99.90;;;;;;5047746;28;20404;-82
2023/05/05 06:53:54;;;;;;;12.85;8.57;;;13.70;99.90;;;;;;5029431;28;20033;-82
2023/05/05 06:56:20;;;;;;;9.45;8.25;;;13.80;99.90;;;;;;5029215;28;20542;-82
2023/05/05 06:58:45;;;;;;;8.93;7.88;;;13.90;99.90;;;;;;5030924;28;20056;-82
2023/05/05 07:01:11;;;;;;;11.90;8.20;;;14.00;99.90;;;;;;5048218;28;20063;-82
2023/05/05 07:03:37;;;;;;;9.43;8.15;;;14.00;99.90;;;;;;5048353;28;20037;-82
2023/05/05 07:06:14;;;;;;;10.80;8.75;;;14.20;99.90;;;;;;5044600;28;20041;-82
2023/05/05 07:08:43;;;;;;;10.23;8.63;;;14.40;99.90;;;;;;5047891;28;20106;-82
2023/05/05 07:11:09;;;;;;;11.85;9.02;;;14.50;99.90;;;;;;5028966;28;20118;-85
2023/05/05 07:13:34;;;;;;;9.88;8.32;;;14.60;99.90;;;;;;5027922;28;20056;-84
2023/05/05 07:16:00;;;;;;;10.43;8.40;;;14.90;99.90;;;;;;5025873;28;20068;-84
2023/05/05 07:18:26;;;;;;;10.10;9.10;;;14.90;99.90;;;;;;5028118;28;20037;-84
2023/05/05 07:20:51;;;;;;;11.63;9.10;;;15.10;99.90;;;;;;5025497;28;20045;-83
2023/05/05 07:23:17;;;;;;;12.27;9.27;;;15.30;99.90;;;;;;5021801;28;20486;-84
2023/05/05 07:25:43;;;;;;;11.13;8.48;;;15.30;99.90;;;;;;5003298;28;20488;-83
2023/05/05 07:28:09;;;;;;;9.55;8.55;;;15.40;99.90;;;;;;5005886;28;20377;-83
2023/05/05 07:30:35;;;;;;;9.27;8.38;;;15.60;99.90;;;;;;5036167;28;20051;-82
2023/05/05 07:33:00;;;;;;;10.25;8.95;;;15.70;99.90;;;;;;5029772;28;20036;-82
2023/05/05 07:35:26;;;;;;;10.82;9.40;;;15.80;99.90;;;;;;5030534;28;20041;-83
2023/05/05 07:37:52;;;;;;;10.80;9.43;;;15.90;99.90;;;;;;5029517;28;20045;-83
2023/05/05 07:40:17;;;;;;;12.02;9.70;;;16.10;99.90;;;;;;5016654;28;20076;-83
2023/05/05 07:42:43;;;;;;;11.68;9.27;;;16.30;99.90;;;;;;5022768;28;20041;-84
2023/05/05 07:45:09;;;;;;;9.90;8.85;;;16.40;99.90;;;;;;5026113;28;20474;-83
2023/05/05 07:47:35;;;;;;;11.68;10.00;;;16.40;99.90;;;;;;5022484;28;20049;-83
2023/05/05 07:50:01;;;;;;;10.27;9.23;;;16.40;99.90;;;;;;5025141;28;20053;-83
2023/05/05 07:52:26;;;;;;;10.57;9.48;;;16.60;99.90;;;;;;5009371;28;20041;-83
2023/05/05 07:54:52;;;;;;;10.48;9.38;;;16.90;99.90;;;;;;5024991;28;20072;-83
2023/05/05 07:57:20;;;;;;;13.60;10.02;;;16.90;99.90;;;;;;5026267;28;20037;-83
2023/05/05 07:59:45;;;;;;;13.70;9.48;;;17.20;99.90;;;;;;5042597;28;20038;-83
2023/05/05 08:02:15;;;;;;;11.05;9.65;;;17.30;99.90;;;;;;5024817;28;20094;-84
2023/05/05 08:04:41;;;;;;;10.80;9.57;;;17.00;99.90;;;;;;5025126;28;20041;-84
2023/05/05 08:07:07;;;;;;;12.52;9.20;;;17.10;99.90;;;;;;5027737;28;20518;-84
2023/05/05 08:09:36;;;;;;;11.13;10.02;;;17.70;99.90;;;;;;5031396;28;20045;-84
2023/05/05 08:12:03;;;;;;;13.40;9.88;;;17.40;99.90;;;;;;5030979;28;20679;-84
2023/05/05 08:14:29;;;;;;;10.98;9.52;;;17.40;99.90;;;;;;5031106;28;20049;-83
2023/05/05 08:16:57;;;;;;;12.70;10.18;;;17.50;99.90;;;;;;5032102;28;20064;-84
2023/05/05 08:19:24;;;;;;;12.30;10.40;;;17.60;99.90;;;;;;5049441;28;20038;-84
2023/05/05 08:21:52;;;;;;;12.30;11.00;;;17.60;99.90;;;;;;5032201;28;20049;-84
2023/05/05 08:24:18;;;;;;;11.48;10.27;;;17.80;99.90;;;;;;5016543;28;20511;-83
2023/05/05 08:26:44;;;;;;;13.35;10.27;;;17.90;99.90;;;;;;5032463;28;20084;-83
2023/05/05 08:29:09;;;;;;;11.90;9.68;;;18.10;99.90;;;;;;5049742;28;20038;-84
2023/05/05 08:31:35;;;;;;;11.68;10.45;;;18.20;99.90;;;;;;5032623;28;20049;-84
2023/05/05 08:34:05;;;;;;;11.55;10.32;;;18.40;99.90;;;;;;5033050;28;20458;-84
2023/05/05 08:36:31;;;;;;;11.02;9.90;;;18.50;99.90;;;;;;5034026;28;20091;-85
2023/05/05 08:39:00;;;;;;;13.07;11.00;;;18.70;99.90;;;;;;5032787;28;20045;-84
2023/05/05 08:41:27;;;;;;;12.93;11.02;;;18.90;99.90;;;;;;5053498;28;20447;-84
2023/05/05 08:43:52;;;;;;;12.52;10.00;;;19.00;99.90;;;;;;5053535;28;20090;-84
2023/05/05 08:46:26;;;;;;;12.88;10.13;;;19.00;99.90;;;;;;5035999;28;20127;-84
2023/05/05 08:48:56;;;;;;;15.15;11.18;;;19.20;99.90;;;;;;5035292;28;20069;-84
2023/05/05 08:51:30;;;;;;;13.07;11.10;;;19.80;99.90;;;;;;5054214;28;20151;-84
2023/05/05 08:54:04;;;;;;;12.02;10.38;;;19.80;99.90;;;;;;5035275;28;20045;-84
2023/05/05 08:56:40;;;;;;;12.02;9.93;;;19.70;99.90;;;;;;5054260;28;20052;-84
2023/05/05 08:59:08;;;;;;;13.85;11.77;;;20.00;99.90;;;;;;5035013;28;20140;-84
2023/05/05 09:01:34;;;;;;;13.05;10.30;;;19.80;99.90;;;;;;5052258;28;20041;-85
2023/05/05 09:04:02;;;;;;;14.55;11.77;;;19.90;99.90;;;;;;5035303;28;20052;-84
2023/05/05 09:06:31;;;;;;;13.88;11.52;;;19.80;99.90;;;;;;5053830;28;20386;-84
2023/05/05 09:08:57;;;;;;;15.30;11.98;;;19.70;99.90;;;;;;5053082;28;20367;-84
2023/05/05 09:11:23;;;;;;;15.57;11.82;;;20.00;99.90;;;;;;5034741;28;20057;-85
2023/05/05 09:13:48;;;;;;;12.48;11.23;;;19.70;99.90;;;;;;5035358;28;20045;-84
2023/05/05 09:16:14;;;;;;;13.23;11.77;;;19.60;99.90;;;;;;5019787;28;20387;-84
2023/05/05 09:18:41;;;;;;;13.15;11.73;;;19.50;99.90;;;;;;5052625;28;20041;-83
2023/05/05 09:21:24;;;;;;;13.77;11.93;;;19.50;99.90;;;;;;5051043;28;20057;-84
2023/05/05 09:24:10;;;;;;;13.60;10.98;;;19.90;99.90;;;;;;5050439;28;20041;-83
2023/05/05 09:26:42;;;;;;;14.40;12.25;;;19.80;99.90;;;;;;5016400;28;20060;-84
2023/05/05 09:29:07;;;;;;;12.27;10.75;;;19.90;99.90;;;;;;5032922;28;20053;-84
2023/05/05 09:31:38;;;;;;;12.05;9.70;;;20.20;99.90;;;;;;5032898;28;20533;-85
2023/05/05 09:34:14;;;;;;;11.43;10.02;;;20.50;99.90;;;;;;5032436;28;20730;-85
2023/05/05 09:36:46;;;;;;;14.48;11.13;;;20.70;98.60;;;;;;5032064;28;20128;-85
2023/05/05 09:39:13;;;;;;;12.27;10.95;;;20.80;99.00;;;;;;5032213;28;20045;-85
2023/05/05 09:41:41;;;;;;;12.27;10.77;;;20.90;98.60;;;;;;5032794;28;20968;-84
2023/05/05 09:44:08;;;;;;;12.52;11.10;;;20.80;98.70;;;;;;5031892;28;20045;-84
2023/05/05 09:46:34;;;;;;;12.80;11.52;;;20.80;98.40;;;;;;5032471;28;20051;-84
2023/05/05 09:49:15;;;;;;;13.57;12.05;;;20.80;98.60;;;;;;5031992;28;20045;-85
2023/05/05 09:51:40;;;;;;;15.38;11.77;;;20.90;98.30;;;;;;5050089;28;20037;-85
2023/05/05 09:54:06;;;;;;;13.25;11.73;;;21.10;98.40;;;;;;5031865;28;20047;-85
2023/05/05 09:56:41;;;;;;;12.52;11.23;;;20.90;99.00;;;;;;5050300;28;20067;-85
2023/05/05 09:59:16;;;;;;;12.77;11.48;;;21.00;98.00;;;;;;5032423;28;20055;-85
2023/05/05 10:01:44;;;;;;;11.98;10.77;;;21.00;98.70;;;;;;5031173;28;20053;-85
2023/05/05 10:04:28;;;;;;;12.35;10.98;;;21.10;98.30;;;;;;5031774;28;20049;-85
2023/05/05 10:06:57;;;;;;;14.32;11.13;;;21.10;96.60;;;;;;5050240;28;20049;-85
2023/05/05 10:09:26;;;;;;;12.55;11.25;;;21.10;97.10;;;;;;5031788;28;20049;-85
2023/05/05 10:11:55;;;;;;;12.70;11.23;;;21.70;97.20;;;;;;5031407;28;20056;-84
2023/05/05 10:14:23;;;;;;;16.75;11.57;;;21.70;97.00;;;;;;5015752;28;20056;-85
2023/05/05 10:17:00;;;;;;;14.27;11.80;;;21.70;96.30;;;;;;5031209;28;20131;-84
2023/05/05 10:19:33;;;;;;;14.32;10.88;;;21.90;95.60;;;;;;5031532;28;20507;-84
2023/05/05 10:22:04;;;;;;;12.15;9.60;;;22.00;95.50;;;;;;5031458;28;20033;-85
2023/05/05 10:24:49;;;;;;;10.90;9.80;;;22.20;95.10;;;;;;5049217;28;20120;-85
2023/05/05 10:27:22;;;;;;;14.02;11.40;;;22.20;93.60;;;;;;5031783;28;20053;-85
2023/05/05 10:30:00;;;;;;;12.77;11.47;;;22.20;93.80;;;;;;5029833;28;20049;-85
2023/05/05 10:32:37;;;;;;;11.98;10.70;;;21.90;94.60;;;;;;5031065;28;20295;-85
2023/05/05 10:35:08;;;;;;;10.75;9.65;;;21.70;95.10;;;;;;5048096;28;20132;-85
2023/05/05 10:37:40;;;;;;;9.10;8.13;;;21.70;95.60;;;;;;5030743;28;20049;-84
2023/05/05 10:40:11;;;;;;;8.70;7.80;;;21.80;94.60;;;;;;5030344;28;20063;-85
2023/05/05 10:42:38;;;;;;;9.30;7.10;;;21.70;95.00;;;;;;5030640;28;20415;-85
2023/05/05 10:45:05;;;;;;;8.32;6.47;;;21.80;94.20;;;;;;5049069;28;20055;-85
2023/05/05 10:47:32;;;;;;;6.95;6.10;;;22.00;93.60;;;;;;5030383;28;20257;-85
2023/05/05 10:50:27;;;;;;;5.88;4.38;;;22.20;92.50;;;;;;5030786;28;20057;-85
2023/05/05 10:53:37;;;;;;;5.60;4.35;;;22.30;90.40;;;;;;5031189;28;20053;-85
2023/05/05 10:56:30;;;;;;;5.32;3.88;;;22.30;81.00;;;;;;5030224;28;20049;-85
2023/05/05 10:59:01;;;;;;;4.88;3.95;;;21.90;80.60;;;;;;5035226;28;20057;-85
2023/05/05 11:01:34;;;;;;;6.30;4.07;;;21.80;86.10;;;;;;5014679;28;20513;-85
2023/05/05 11:04:22;;;;;;;6.03;4.30;;;21.70;87.20;;;;;;5029752;28;20049;-86
2023/05/05 11:10:03;;;;;;;4.38;3.80;;;21.40;84.40;;;;;;5047437;28;20045;-85
2023/05/05 11:12:30;;;;;;;5.57;3.33;;;21.70;85.80;;;;;;5030586;28;20535;-86
2023/05/05 11:15:30;;;;;;;5.80;4.15;;;21.60;85.10;;;;;;5030086;28;20044;-86
2023/05/05 11:18:01;;;;;;;6.63;3.30;;;21.60;83.90;;;;;;5030251;28;20049;-85
2023/05/05 11:20:57;;;;;;;;;;;;;;;;;;;;;
2023/05/05 11:23:26;;;;;;;4.57;2.90;;;22.40;82.70;;;;;;5022081;28;20061;-85
2023/05/05 11:25:53;;;;;;;3.75;2.60;;;22.00;82.90;;;;;;5033572;28;20052;-85
2023/05/05 11:28:24;;;;;;;3.55;2.95;;;21.80;81.40;;;;;;5033351;28;20045;-85
2023/05/05 11:31:02;;;;;;;7.32;4.03;;;21.90;79.60;;;;;;5015839;28;20440;-85
2023/05/05 11:33:31;;;;;;;6.20;4.18;;;21.80;82.00;;;;;;5048665;28;20041;-85
2023/05/05 11:36:05;;;;;;;5.72;3.88;;;21.70;84.60;;;;;;5029939;28;20503;-85
2023/05/05 11:38:55;;;;;;;4.85;3.63;;;21.80;83.30;;;;;;5030371;28;20139;-85
2023/05/05 11:41:32;;;;;;;6.15;4.25;;;21.90;83.10;;;;;;5029266;28;20052;-85
2023/05/05 11:44:14;;;;;;;6.25;4.30;;;21.80;84.30;;;;;;5046779;28;20056;-85
2023/05/05 11:46:49;;;;;;;6.07;3.92;;;21.70;82.00;;;;;;5029738;28;20056;-85
2023/05/05 11:49:29;;;;;;;6.72;4.35;;;21.90;85.40;;;;;;5030818;28;20411;-85
2023/05/05 11:51:59;;;;;;;5.80;4.05;;;21.60;85.10;;;;;;5030073;28;20102;-85
2023/05/05 11:54:25;;;;;;;5.07;3.80;;;21.60;84.50;;;;;;5030118;28;20098;-85
2023/05/05 11:56:56;;;;;;;5.22;3.75;;;21.60;84.00;;;;;;5030013;28;20049;-86
2023/05/05 11:59:21;;;;;;;5.25;4.53;;;21.60;84.00;;;;;;5029574;28;20102;-83
2023/05/05 12:01:47;;;;;;;5.75;4.47;;;21.60;85.00;;;;;;5029802;28;20045;-84
2023/05/05 12:04:14;;;;;;;6.45;4.80;;;21.50;85.70;;;;;;5030270;28;20116;-84
2023/05/05 12:06:41;;;;;;;6.88;4.65;;;21.60;86.10;;;;;;5013370;28;20049;-83
2023/05/05 12:09:14;;;;;;;7.22;5.40;;;21.60;87.90;;;;;;5012026;28;20041;-84
2023/05/05 12:11:56;;;;;;;5.85;4.28;;;21.60;86.50;;;;;;5030281;28;20398;-85
2023/05/05 12:14:23;;;;;;;5.90;4.55;;;21.60;86.30;;;;;;5030293;28;20426;-85
2023/05/05 12:17:08;;;;;;;5.45;4.30;;;21.40;87.10;;;;;;5029283;28;20103;-85
2023/05/05 12:19:34;;;;;;;5.38;3.83;;;21.50;86.40;;;;;;5013282;28;20492;-85
2023/05/05 12:22:03;;;;;;;5.85;3.53;;;21.60;87.90;;;;;;5029223;28;20057;-85
2023/05/05 12:24:29;;;;;;;6.30;3.80;;;21.30;87.00;;;;;;5046300;28;20037;-85
2023/05/05 12:27:05;;;;;;;6.05;3.53;;;21.50;86.70;;;;;;5013124;28;20052;-85
2023/05/05 12:29:31;;;;;;;4.82;3.35;;;21.40;87.00;;;;;;5047370;28;20534;-85
2023/05/05 12:31:58;;;;;;;4.72;3.40;;;21.20;87.30;;;;;;5029306;28;20044;-85
2023/05/05 12:34:25;;;;;;;7.63;3.47;;;21.10;87.80;;;;;;5012447;28;20051;-85
2023/05/05 12:36:51;;;;;;;4.00;3.40;;;21.10;90.70;;;;;;5029581;28;20130;-85
2023/05/05 12:39:16;;;;;;;4.53;3.40;;;20.80;91.60;;;;;;5029429;28;20044;-85
2023/05/05 12:41:43;;;;;;;4.20;3.13;;;20.60;92.50;;;;;;5029177;28;20504;-85
2023/05/05 12:44:08;;;;;;;5.78;3.70;;;20.50;92.90;;;;;;5028574;28;20055;-85
2023/05/05 12:46:55;;;;;;;6.35;3.58;;;20.20;94.00;;;;;;5029706;28;20052;-85
2023/05/05 12:49:20;;;;;;;5.25;3.53;;;20.10;96.60;;;;;;5030013;28;20053;-85
2023/05/05 12:51:56;;;;;;;4.38;3.20;;;19.80;97.10;;;;;;5029196;28;20406;-85
2023/05/05 12:54:28;;;;;;;5.45;2.50;;;19.50;99.90;;;;;;5031723;28;20113;-86
2023/05/05 12:56:57;;;;;;;4.85;2.78;;;19.10;99.90;;;;;;5033560;28;20475;-85